sensor_id;sensor_type;location;lat;lon;timestamp;pressure;altitude;pressure_sealevel;temperature;humidity
43153;BME280;28756;49.064;9.290;2023-06-26T00:01:24;98982.09;;;15.63;100.00
43153;BME280;28756;49.064;9.290;2023-06-26T00:03:49;98984.25;;;15.58;100.00
43153;BME280;28756;49.064;9.290;2023-06-26T00:06:15;98984.97;;;15.49;100.00
43153;BME280;28756;49.064;9.290;2023-06-26T00:08:41;98982.00;;;15.42;100.00
43153;BME280;28756;49.064;9.290;2023-06-26T00:11:07;98985.66;;;15.40;100.00
43153;BME280;28756;49.064;9.290;2023-06-26T00:13:34;98982.22;;;15.39;100.00
43153;BME280;28756;49.064;9.290;2023-06-26T00:15:59;98996.25;;;15.38;100.00
43153;BME280;28756;49.064;9.290;2023-06-26T00:18:29;98989.81;;;15.31;100.00
43153;BME280;28756;49.064;9.290;2023-06-26T00:20:54;98998.88;;;15.27;100.00
43153;BME280;28756;49.064;9.290;2023-06-26T00:23:20;98991.38;;;15.22;100.00
43153;BME280;28756;49.064;9.290;2023-06-26T00:25:46;98994.44;;;15.16;100.00
43153;BME280;28756;49.064;9.290;2023-06-26T00:28:12;98993.72;;;15.14;100.00
43153;BME280;28756;49.064;9.290;2023-06-26T00:30:38;98994.44;;;15.16;100.00
43153;BME280;28756;49.064;9.290;2023-06-26T00:33:03;99001.69;;;15.12;100.00
43153;BME280;28756;49.064;9.290;2023-06-26T00:35:29;98994.06;;;15.09;100.00
43153;BME280;28756;49.064;9.290;2023-06-26T00:37:55;98992.72;;;15.04;100.00
43153;BME280;28756;49.064;9.290;2023-06-26T00:40:21;98986.03;;;14.99;100.00
43153;BME280;28756;49.064;9.290;2023-06-26T00:42:46;98987.13;;;14.97;100.00
43153;BME280;28756;49.064;9.290;2023-06-26T00:45:12;98984.50;;;14.97;100.00
43153;BME280;28756;49.064;9.290;2023-06-26T00:47:38;98989.84;;;14.95;100.00
43153;BME280;28756;49.064;9.290;2023-06-26T00:50:05;98988.31;;;14.93;100.00
43153;BME280;28756;49.064;9.290;2023-06-26T00:52:32;98982.69;;;14.86;100.00
43153;BME280;28756;49.064;9.290;2023-06-26T00:54:58;98980.31;;;14.83;100.00
43153;BME280;28756;49.064;9.290;2023-06-26T00:57:23;98977.91;;;14.80;100.00
43153;BME280;28756;49.064;9.290;2023-06-26T00:59:49;98981.13;;;14.83;100.00
43153;BME280;28756;49.064;9.290;2023-06-26T01:02:15;98987.09;;;14.86;100.00
43153;BME280;28756;49.064;9.290;2023-06-26T01:04:49;98976.47;;;14.76;100.00
43153;BME280;28756;49.064;9.290;2023-06-26T01:07:16;98974.28;;;14.69;100.00
43153;BME280;28756;49.064;9.290;2023-06-26T01:09:46;98977.19;;;14.65;100.00
43153;BME280;28756;49.064;9.290;2023-06-26T01:12:13;98972.22;;;14.62;100.00
43153;BME280;28756;49.064;9.290;2023-06-26T01:14:39;98979.22;;;14.61;100.00
43153;BME280;28756;49.064;9.290;2023-06-26T01:17:04;98973.28;;;14.59;100.00
43153;BME280;28756;49.064;9.290;2023-06-26T01:19:32;98969.69;;;14.60;100.00
43153;BME280;28756;49.064;9.290;2023-06-26T01:27:53;98971.31;;;14.50;100.00
43153;BME280;28756;49.064;9.290;2023-06-26T01:30:20;98969.03;;;14.45;100.00
43153;BME280;28756;49.064;9.290;2023-06-26T01:32:46;98962.25;;;14.43;100.00
43153;BME280;28756;49.064;9.290;2023-06-26T01:35:15;98963.41;;;14.38;100.00
43153;BME280;28756;49.064;9.290;2023-06-26T01:37:41;98961.03;;;14.35;100.00
43153;BME280;28756;49.064;9.290;2023-06-26T01:40:07;98964.59;;;14.34;100.00
43153;BME280;28756;49.064;9.290;2023-06-26T01:42:34;98961.38;;;14.31;100.00
43153;BME280;28756;49.064;9.290;2023-06-26T01:45:18;98961.44;;;14.29;100.00
43153;BME280;28756;49.064;9.290;2023-06-26T01:47:51;98960.00;;;14.25;100.00
43153;BME280;28756;49.064;9.290;2023-06-26T01:50:24;98965.25;;;14.25;100.00
43153;BME280;28756;49.064;9.290;2023-06-26T01:53:12;98960.22;;;14.22;100.00
43153;BME280;28756;49.064;9.290;2023-06-26T01:58:16;98959.31;;;14.10;100.00
43153;BME280;28756;49.064;9.290;2023-06-26T02:00:42;98954.66;;;14.02;100.00
43153;BME280;28756;49.064;9.290;2023-06-26T02:03:08;98953.09;;;14.00;100.00
43153;BME280;28756;49.064;9.290;2023-06-26T02:05:34;98953.41;;;13.95;100.00
43153;BME280;28756;49.064;9.290;2023-06-26T02:08:00;98945.78;;;13.92;100.00
43153;BME280;28756;49.064;9.290;2023-06-26T02:10:29;98949.13;;;13.94;100.00
43153;BME280;28756;49.064;9.290;2023-06-26T02:12:55;98957.78;;;13.95;100.00
43153;BME280;28756;49.064;9.290;2023-06-26T02:15:21;98953.63;;;13.92;100.00
43153;BME280;28756;49.064;9.290;2023-06-26T02:17:47;98951.22;;;13.89;100.00
43153;BME280;28756;49.064;9.290;2023-06-26T02:20:16;98948.59;;;13.89;100.00
43153;BME280;28756;49.064;9.290;2023-06-26T02:22:42;98948.72;;;13.87;100.00
43153;BME280;28756;49.064;9.290;2023-06-26T02:25:11;98950.72;;;13.84;100.00
43153;BME280;28756;49.064;9.290;2023-06-26T02:27:38;98954.06;;;13.86;100.00
43153;BME280;28756;49.064;9.290;2023-06-26T02:30:05;98952.38;;;13.85;100.00
43153;BME280;28756;49.064;9.290;2023-06-26T02:32:30;98951.66;;;13.83;100.00
43153;BME280;28756;49.064;9.290;2023-06-26T02:34:56;98954.59;;;13.78;100.00
43153;BME280;28756;49.064;9.290;2023-06-26T02:37:22;98947.69;;;13.77;100.00
43153;BME280;28756;49.064;9.290;2023-06-26T02:39:48;98953.03;;;13.76;100.00
43153;BME280;28756;49.064;9.290;2023-06-26T02:42:14;98946.75;;;13.78;100.00
43153;BME280;28756;49.064;9.290;2023-06-26T02:44:40;98949.34;;;13.78;100.00
43153;BME280;28756;49.064;9.290;2023-06-26T02:47:06;98951.47;;;13.73;100.00
43153;BME280;28756;49.064;9.290;2023-06-26T02:49:32;98950.84;;;13.69;100.00
43153;BME280;28756;49.064;9.290;2023-06-26T02:51:57;98944.19;;;13.65;100.00
43153;BME280;28756;49.064;9.290;2023-06-26T02:54:23;98954.72;;;13.64;100.00
43153;BME280;28756;49.064;9.290;2023-06-26T02:56:49;98953.28;;;13.60;100.00
43153;BME280;28756;49.064;9.290;2023-06-26T02:59:15;98957.75;;;13.57;100.00
43153;BME280;28756;49.064;9.290;2023-06-26T03:01:40;98956.19;;;13.55;100.00
43153;BME280;28756;49.064;9.290;2023-06-26T03:04:06;98957.88;;;13.56;100.00
43153;BME280;28756;49.064;9.290;2023-06-26T03:06:32;98944.91;;;13.54;100.00
43153;BME280;28756;49.064;9.290;2023-06-26T03:08:58;98958.06;;;13.53;100.00
43153;BME280;28756;49.064;9.290;2023-06-26T03:11:23;98959.25;;;13.49;100.00
43153;BME280;28756;49.064;9.290;2023-06-26T03:13:49;98959.25;;;13.49;100.00
43153;BME280;28756;49.064;9.290;2023-06-26T03:16:15;98962.88;;;13.46;100.00
43153;BME280;28756;49.064;9.290;2023-06-26T03:18:41;98957.44;;;13.49;100.00
43153;BME280;28756;49.064;9.290;2023-06-26T03:21:06;98961.13;;;13.47;100.00
43153;BME280;28756;49.064;9.290;2023-06-26T03:23:32;98960.25;;;13.46;100.00
43153;BME280;28756;49.064;9.290;2023-06-26T03:25:58;98964.66;;;13.46;100.00
43153;BME280;28756;49.064;9.290;2023-06-26T03:28:24;98968.31;;;13.43;100.00
43153;BME280;28756;49.064;9.290;2023-06-26T03:30:49;98967.59;;;13.41;100.00
43153;BME280;28756;49.064;9.290;2023-06-26T03:33:15;98971.88;;;13.42;100.00
43153;BME280;28756;49.064;9.290;2023-06-26T03:35:41;98968.53;;;13.40;100.00
43153;BME280;28756;49.064;9.290;2023-06-26T03:38:06;98972.94;;;13.39;100.00
43153;BME280;28756;49.064;9.290;2023-06-26T03:40:32;98977.22;;;13.40;100.00
43153;BME280;28756;49.064;9.290;2023-06-26T03:42:58;98977.09;;;13.42;100.00
43153;BME280;28756;49.064;9.290;2023-06-26T03:45:23;98976.28;;;13.41;100.00
43153;BME280;28756;49.064;9.290;2023-06-26T03:47:49;98979.41;;;13.47;100.00
43153;BME280;28756;49.064;9.290;2023-06-26T03:50:19;98969.88;;;13.46;100.00
43153;BME280;28756;49.064;9.290;2023-06-26T03:52:45;98977.72;;;13.46;100.00
43153;BME280;28756;49.064;9.290;2023-06-26T03:55:11;98979.41;;;13.47;100.00
43153;BME280;28756;49.064;9.290;2023-06-26T03:57:36;98974.06;;;13.48;100.00
43153;BME280;28756;49.064;9.290;2023-06-26T04:00:03;98979.19;;;13.50;100.00
43153;BME280;28756;49.064;9.290;2023-06-26T04:02:36;98983.47;;;13.51;100.00
43153;BME280;28756;49.064;9.290;2023-06-26T04:05:02;98986.81;;;13.53;100.00
43153;BME280;28756;49.064;9.290;2023-06-26T04:07:30;98983.88;;;13.57;100.00
43153;BME280;28756;49.064;9.290;2023-06-26T04:09:57;98984.41;;;13.63;100.00
43153;BME280;28756;49.064;9.290;2023-06-26T04:12:23;98977.81;;;13.70;100.00
43153;BME280;28756;49.064;9.290;2023-06-26T04:14:49;98988.56;;;13.78;100.00
43153;BME280;28756;49.064;9.290;2023-06-26T04:17:14;98978.72;;;13.82;100.00
43153;BME280;28756;49.064;9.290;2023-06-26T04:19:40;98975.91;;;13.85;100.00
43153;BME280;28756;49.064;9.290;2023-06-26T04:22:06;98987.81;;;13.89;100.00
43153;BME280;28756;49.064;9.290;2023-06-26T04:24:31;98980.63;;;13.93;100.00
43153;BME280;28756;49.064;9.290;2023-06-26T04:26:57;98982.88;;;13.97;100.00
43153;BME280;28756;49.064;9.290;2023-06-26T04:29:28;98981.41;;;14.06;100.00
43153;BME280;28756;49.064;9.290;2023-06-26T04:31:54;98991.44;;;14.12;100.00
43153;BME280;28756;49.064;9.290;2023-06-26T04:34:27;98978.78;;;14.19;100.00
43153;BME280;28756;49.064;9.290;2023-06-26T04:36:54;98981.66;;;14.27;100.00
43153;BME280;28756;49.064;9.290;2023-06-26T04:39:20;98972.44;;;14.34;100.00
43153;BME280;28756;49.064;9.290;2023-06-26T04:41:46;98973.53;;;14.43;100.00
43153;BME280;28756;49.064;9.290;2023-06-26T04:44:12;98970.13;;;14.54;100.00
43153;BME280;28756;49.064;9.290;2023-06-26T04:46:38;98976.28;;;14.66;100.00
43153;BME280;28756;49.064;9.290;2023-06-26T04:49:10;98974.06;;;14.73;100.00
43153;BME280;28756;49.064;9.290;2023-06-26T04:51:36;98969.09;;;14.81;100.00
43153;BME280;28756;49.064;9.290;2023-06-26T04:54:11;98970.91;;;14.92;100.00
43153;BME280;28756;49.064;9.290;2023-06-26T04:56:37;98969.28;;;15.02;100.00
43153;BME280;28756;49.064;9.290;2023-06-26T04:59:06;98968.47;;;15.13;100.00
43153;BME280;28756;49.064;9.290;2023-06-26T05:01:35;98958.13;;;15.23;100.00
43153;BME280;28756;49.064;9.290;2023-06-26T05:04:05;98955.88;;;15.41;100.00
43153;BME280;28756;49.064;9.290;2023-06-26T05:06:31;98956.63;;;15.54;100.00
43153;BME280;28756;49.064;9.290;2023-06-26T05:08:57;98945.06;;;15.79;100.00
43153;BME280;28756;49.064;9.290;2023-06-26T05:11:22;98951.97;;;15.92;100.00
43153;BME280;28756;49.064;9.290;2023-06-26T05:13:49;98945.50;;;16.07;100.00
43153;BME280;28756;49.064;9.290;2023-06-26T05:16:15;98951.94;;;16.26;100.00
43153;BME280;28756;49.064;9.290;2023-06-26T05:18:40;98950.31;;;16.46;100.00
43153;BME280;28756;49.064;9.290;2023-06-26T05:21:07;98955.22;;;16.72;100.00
43153;BME280;28756;49.064;9.290;2023-06-26T05:23:34;98960.41;;;16.95;100.00
43153;BME280;28756;49.064;9.290;2023-06-26T05:26:02;98947.84;;;17.19;100.00
43153;BME280;28756;49.064;9.290;2023-06-26T05:28:29;98950.16;;;17.44;100.00
43153;BME280;28756;49.064;9.290;2023-06-26T05:30:57;98942.94;;;17.67;100.00
43153;BME280;28756;49.064;9.290;2023-06-26T05:33:26;98939.59;;;17.96;100.00
43153;BME280;28756;49.064;9.290;2023-06-26T05:35:52;98945.31;;;18.21;100.00
43153;BME280;28756;49.064;9.290;2023-06-26T05:38:19;98947.28;;;18.48;100.00
43153;BME280;28756;49.064;9.290;2023-06-26T05:40:45;98939.13;;;18.71;100.00
43153;BME280;28756;49.064;9.290;2023-06-26T05:43:11;98933.00;;;19.00;100.00
43153;BME280;28756;49.064;9.290;2023-06-26T05:45:37;98932.13;;;19.29;100.00
43153;BME280;28756;49.064;9.290;2023-06-26T05:48:03;98932.28;;;19.55;100.00
43153;BME280;28756;49.064;9.290;2023-06-26T05:50:29;98930.25;;;19.77;100.00
43153;BME280;28756;49.064;9.290;2023-06-26T05:52:55;98936.91;;;20.09;100.00
43153;BME280;28756;49.064;9.290;2023-06-26T05:55:22;98930.66;;;20.46;100.00
43153;BME280;28756;49.064;9.290;2023-06-26T05:57:49;98932.00;;;20.86;100.00
43153;BME280;28756;49.064;9.290;2023-06-26T06:00:15;98921.50;;;21.21;100.00
43153;BME280;28756;49.064;9.290;2023-06-26T06:02:42;98920.59;;;21.65;100.00
43153;BME280;28756;49.064;9.290;2023-06-26T06:05:09;98925.53;;;22.02;100.00
43153;BME280;28756;49.064;9.290;2023-06-26T06:07:35;98922.31;;;22.50;87.26
43153;BME280;28756;49.064;9.290;2023-06-26T06:10:03;98912.31;;;23.10;88.27
43153;BME280;28756;49.064;9.290;2023-06-26T06:12:29;98908.38;;;23.62;85.19
43153;BME280;28756;49.064;9.290;2023-06-26T06:14:55;98906.25;;;23.97;91.04
43153;BME280;28756;49.064;9.290;2023-06-26T06:17:21;98911.13;;;24.40;76.38
43153;BME280;28756;49.064;9.290;2023-06-26T06:19:49;98906.63;;;24.64;78.71
43153;BME280;28756;49.064;9.290;2023-06-26T06:22:15;98913.59;;;25.18;72.28
43153;BME280;28756;49.064;9.290;2023-06-26T06:24:42;98912.53;;;25.42;63.78
43153;BME280;28756;49.064;9.290;2023-06-26T06:27:08;98909.84;;;25.72;63.42
43153;BME280;28756;49.064;9.290;2023-06-26T06:29:33;98908.94;;;25.80;65.53
43153;BME280;28756;49.064;9.290;2023-06-26T06:31:59;98917.72;;;25.95;59.61
43153;BME280;28756;49.064;9.290;2023-06-26T06:34:25;98904.06;;;25.53;57.06
43153;BME280;28756;49.064;9.290;2023-06-26T06:36:50;98909.41;;;25.68;60.81
43153;BME280;28756;49.064;9.290;2023-06-26T06:39:16;98907.88;;;26.11;54.20
43153;BME280;28756;49.064;9.290;2023-06-26T06:41:42;98910.44;;;25.89;59.43
43153;BME280;28756;49.064;9.290;2023-06-26T06:44:08;98913.06;;;25.67;59.06
43153;BME280;28756;49.064;9.290;2023-06-26T06:46:34;98911.94;;;25.77;58.72
43153;BME280;28756;49.064;9.290;2023-06-26T06:48:59;98913.38;;;25.94;52.96
43153;BME280;28756;49.064;9.290;2023-06-26T06:51:25;98911.16;;;26.56;51.96
43153;BME280;28756;49.064;9.290;2023-06-26T06:53:51;98912.88;;;26.42;52.97
43153;BME280;28756;49.064;9.290;2023-06-26T06:56:17;98915.28;;;26.59;52.14
43153;BME280;28756;49.064;9.290;2023-06-26T06:58:42;98911.59;;;26.82;51.67
43153;BME280;28756;49.064;9.290;2023-06-26T07:01:09;98917.84;;;26.95;54.63
43153;BME280;28756;49.064;9.290;2023-06-26T07:03:35;98916.06;;;26.31;49.97
43153;BME280;28756;49.064;9.290;2023-06-26T07:06:02;98922.97;;;26.25;53.55
43153;BME280;28756;49.064;9.290;2023-06-26T07:08:29;98907.91;;;27.11;50.17
43153;BME280;28756;49.064;9.290;2023-06-26T07:10:54;98911.72;;;27.30;52.06
43153;BME280;28756;49.064;9.290;2023-06-26T07:13:22;98908.41;;;26.93;50.79
43153;BME280;28756;49.064;9.290;2023-06-26T07:15:48;98907.94;;;26.39;49.12
43153;BME280;28756;49.064;9.290;2023-06-26T07:18:14;98913.00;;;25.61;49.86
43153;BME280;28756;49.064;9.290;2023-06-26T07:20:40;98914.50;;;25.85;54.07
43153;BME280;28756;49.064;9.290;2023-06-26T07:23:06;98910.69;;;26.74;54.42
43153;BME280;28756;49.064;9.290;2023-06-26T07:25:32;98913.44;;;26.81;51.65
43153;BME280;28756;49.064;9.290;2023-06-26T07:27:58;98904.53;;;27.31;54.65
43153;BME280;28756;49.064;9.290;2023-06-26T07:30:23;98906.75;;;26.05;50.50
43153;BME280;28756;49.064;9.290;2023-06-26T07:32:50;98902.50;;;27.04;53.70
43153;BME280;28756;49.064;9.290;2023-06-26T07:35:16;98910.28;;;26.99;50.29
43153;BME280;28756;49.064;9.290;2023-06-26T07:37:42;98921.63;;;26.79;52.66
43153;BME280;28756;49.064;9.290;2023-06-26T07:40:11;98907.56;;;27.56;52.48
43153;BME280;28756;49.064;9.290;2023-06-26T07:42:37;98906.13;;;28.15;49.98
43153;BME280;28756;49.064;9.290;2023-06-26T07:45:03;98908.84;;;28.69;50.78
43153;BME280;28756;49.064;9.290;2023-06-26T07:47:36;98916.28;;;27.08;49.14
43153;BME280;28756;49.064;9.290;2023-06-26T07:50:03;98911.09;;;26.49;51.42
43153;BME280;28756;49.064;9.290;2023-06-26T07:52:28;98905.53;;;27.58;50.72
43153;BME280;28756;49.064;9.290;2023-06-26T07:54:56;98896.66;;;28.19;48.58
43153;BME280;28756;49.064;9.290;2023-06-26T07:57:22;98903.78;;;27.85;48.28
43153;BME280;28756;49.064;9.290;2023-06-26T07:59:48;98909.38;;;27.55;48.34
43153;BME280;28756;49.064;9.290;2023-06-26T08:02:13;98913.59;;;27.78;51.27
43153;BME280;28756;49.064;9.290;2023-06-26T08:04:39;98912.56;;;27.79;50.15
43153;BME280;28756;49.064;9.290;2023-06-26T08:07:05;98918.75;;;27.86;47.37
43153;BME280;28756;49.064;9.290;2023-06-26T08:09:31;98921.03;;;27.13;48.81
43153;BME280;28756;49.064;9.290;2023-06-26T08:11:58;98913.25;;;28.01;47.43
43153;BME280;28756;49.064;9.290;2023-06-26T08:14:24;98910.38;;;27.96;48.18
43153;BME280;28756;49.064;9.290;2023-06-26T08:16:51;98907.59;;;28.31;49.99
43153;BME280;28756;49.064;9.290;2023-06-26T08:19:17;98908.84;;;29.03;46.26
43153;BME280;28756;49.064;9.290;2023-06-26T08:21:45;98908.06;;;27.80;48.07
43153;BME280;28756;49.064;9.290;2023-06-26T08:24:12;98896.09;;;28.78;48.20
43153;BME280;28756;49.064;9.290;2023-06-26T08:26:46;98896.03;;;29.18;48.45
43153;BME280;28756;49.064;9.290;2023-06-26T08:29:12;98896.31;;;28.76;46.99
43153;BME280;28756;49.064;9.290;2023-06-26T08:31:39;98899.94;;;29.29;46.18
43153;BME280;28756;49.064;9.290;2023-06-26T08:34:05;98885.63;;;29.62;46.43
43153;BME280;28756;49.064;9.290;2023-06-26T08:36:32;98886.44;;;30.08;46.06
43153;BME280;28756;49.064;9.290;2023-06-26T08:38:58;98895.06;;;28.99;46.65
43153;BME280;28756;49.064;9.290;2023-06-26T08:41:24;98897.13;;;28.77;46.24
43153;BME280;28756;49.064;9.290;2023-06-26T08:43:50;98886.31;;;29.96;48.33
43153;BME280;28756;49.064;9.290;2023-06-26T08:46:18;98897.06;;;29.30;48.64
43153;BME280;28756;49.064;9.290;2023-06-26T08:49:14;98891.66;;;29.51;48.42
43153;BME280;28756;49.064;9.290;2023-06-26T08:51:42;98892.38;;;29.71;47.02
43153;BME280;28756;49.064;9.290;2023-06-26T08:54:12;98906.78;;;28.64;46.29
43153;BME280;28756;49.064;9.290;2023-06-26T08:56:44;98904.50;;;29.35;48.14
43153;BME280;28756;49.064;9.290;2023-06-26T08:59:11;98889.34;;;29.61;45.80
43153;BME280;28756;49.064;9.290;2023-06-26T09:01:38;98888.13;;;30.02;48.77
43153;BME280;28756;49.064;9.290;2023-06-26T09:04:04;98894.81;;;29.34;45.61
43153;BME280;28756;49.064;9.290;2023-06-26T09:06:30;98883.63;;;29.96;46.82
43153;BME280;28756;49.064;9.290;2023-06-26T09:08:56;98884.19;;;29.59;47.54
43153;BME280;28756;49.064;9.290;2023-06-26T09:11:21;98874.16;;;31.01;44.71
43153;BME280;28756;49.064;9.290;2023-06-26T09:13:47;98883.00;;;30.33;43.67
43153;BME280;28756;49.064;9.290;2023-06-26T09:16:13;98875.09;;;30.38;45.52
43153;BME280;28756;49.064;9.290;2023-06-26T09:18:41;98869.72;;;31.81;44.55
43153;BME280;28756;49.064;9.290;2023-06-26T09:21:10;98879.28;;;30.59;45.26
43153;BME280;28756;49.064;9.290;2023-06-26T09:23:37;98885.47;;;30.85;43.88
43153;BME280;28756;49.064;9.290;2023-06-26T09:26:05;98878.91;;;30.55;43.16
43153;BME280;28756;49.064;9.290;2023-06-26T09:28:35;98870.97;;;30.86;44.94
43153;BME280;28756;49.064;9.290;2023-06-26T09:31:05;98872.34;;;30.77;44.36
43153;BME280;28756;49.064;9.290;2023-06-26T09:33:37;98869.31;;;30.41;42.54
43153;BME280;28756;49.064;9.290;2023-06-26T09:36:19;98872.66;;;30.04;44.93
43153;BME280;28756;49.064;9.290;2023-06-26T09:38:45;98878.31;;;30.21;44.75
43153;BME280;28756;49.064;9.290;2023-06-26T09:41:11;98880.00;;;30.16;43.56
43153;BME280;28756;49.064;9.290;2023-06-26T09:43:49;98880.06;;;30.34;42.24
43153;BME280;28756;49.064;9.290;2023-06-26T09:46:25;98879.09;;;30.29;44.99
43153;BME280;28756;49.064;9.290;2023-06-26T09:49:08;98899.41;;;29.72;43.77
43153;BME280;28756;49.064;9.290;2023-06-26T09:51:35;98902.06;;;29.00;45.07
43153;BME280;28756;49.064;9.290;2023-06-26T09:54:02;98894.59;;;29.36;45.67
43153;BME280;28756;49.064;9.290;2023-06-26T09:56:29;98889.84;;;29.38;47.31
43153;BME280;28756;49.064;9.290;2023-06-26T09:58:58;98894.03;;;30.43;47.13
43153;BME280;28756;49.064;9.290;2023-06-26T10:01:25;98896.88;;;29.77;45.66
43153;BME280;28756;49.064;9.290;2023-06-26T10:03:51;98905.97;;;28.50;48.27
43153;BME280;28756;49.064;9.290;2023-06-26T10:06:45;98897.13;;;28.57;50.57
43153;BME280;28756;49.064;9.290;2023-06-26T10:09:13;98903.31;;;28.77;49.33
43153;BME280;28756;49.064;9.290;2023-06-26T10:11:57;98906.19;;;28.69;50.02
43153;BME280;28756;49.064;9.290;2023-06-26T10:14:27;98906.06;;;28.02;51.17
43153;BME280;28756;49.064;9.290;2023-06-26T10:16:58;98906.88;;;27.89;53.44
43153;BME280;28756;49.064;9.290;2023-06-26T10:19:25;98910.97;;;27.92;51.38
43153;BME280;28756;49.064;9.290;2023-06-26T10:21:54;98908.41;;;27.63;52.91
43153;BME280;28756;49.064;9.290;2023-06-26T10:24:22;98909.34;;;27.97;53.61
43153;BME280;28756;49.064;9.290;2023-06-26T10:26:59;98909.88;;;28.41;49.65
43153;BME280;28756;49.064;9.290;2023-06-26T10:29:29;98912.19;;;28.71;50.83
43153;BME280;28756;49.064;9.290;2023-06-26T10:31:58;98914.78;;;28.24;50.99
43153;BME280;28756;49.064;9.290;2023-06-26T10:34:24;98921.34;;;28.08;50.74
43153;BME280;28756;49.064;9.290;2023-06-26T10:37:03;98917.88;;;28.61;53.38
43153;BME280;28756;49.064;9.290;2023-06-26T10:39:49;98918.72;;;28.62;52.42
43153;BME280;28756;49.064;9.290;2023-06-26T10:42:20;98916.25;;;28.67;52.84
43153;BME280;28756;49.064;9.290;2023-06-26T10:44:53;98918.84;;;27.23;58.73
43153;BME280;28756;49.064;9.290;2023-06-26T10:47:29;98918.31;;;28.65;57.43
43153;BME280;28756;49.064;9.290;2023-06-26T10:50:29;98917.31;;;28.99;53.00
43153;BME280;28756;49.064;9.290;2023-06-26T10:56:03;98915.22;;;28.55;56.81
43153;BME280;28756;49.064;9.290;2023-06-26T10:58:31;98905.31;;;29.81;57.36
43153;BME280;28756;49.064;9.290;2023-06-26T11:01:19;98914.16;;;29.23;54.81
43153;BME280;28756;49.064;9.290;2023-06-26T11:04:04;98911.31;;;29.11;55.63
43153;BME280;28756;49.064;9.290;2023-06-26T11:06:32;98910.66;;;28.21;60.75
43153;BME280;28756;49.064;9.290;2023-06-26T11:09:11;98912.94;;;27.69;64.17
43153;BME280;28756;49.064;9.290;2023-06-26T11:14:19;98921.63;;;27.08;69.67
43153;BME280;28756;49.064;9.290;2023-06-26T11:16:46;98923.19;;;26.95;75.37
43153;BME280;28756;49.064;9.290;2023-06-26T11:19:13;98925.28;;;27.35;74.02
43153;BME280;28756;49.064;9.290;2023-06-26T11:21:39;98921.38;;;27.31;74.33
43153;BME280;28756;49.064;9.290;2023-06-26T11:24:09;98914.13;;;28.09;71.26
43153;BME280;28756;49.064;9.290;2023-06-26T11:26:43;98921.75;;;28.12;65.30
43153;BME280;28756;49.064;9.290;2023-06-26T11:29:10;98913.41;;;27.86;63.73
43153;BME280;28756;49.064;9.290;2023-06-26T11:31:39;98909.69;;;28.96;74.38
43153;BME280;28756;49.064;9.290;2023-06-26T11:34:10;98915.41;;;29.34;62.54
43153;BME280;28756;49.064;9.290;2023-06-26T11:36:38;98911.94;;;29.78;61.28
43153;BME280;28756;49.064;9.290;2023-06-26T11:39:06;98917.50;;;29.11;61.75
43153;BME280;28756;49.064;9.290;2023-06-26T11:41:34;98929.81;;;28.59;61.06
43153;BME280;28756;49.064;9.290;2023-06-26T11:44:05;98929.25;;;28.90;60.70
43153;BME280;28756;49.064;9.290;2023-06-26T11:46:33;98929.97;;;29.51;63.16
43153;BME280;28756;49.064;9.290;2023-06-26T11:48:59;98921.00;;;29.77;59.50
43153;BME280;28756;49.064;9.290;2023-06-26T11:51:27;98939.31;;;29.15;60.80
43153;BME280;28756;49.064;9.290;2023-06-26T11:53:53;98939.69;;;28.51;62.49
43153;BME280;28756;49.064;9.290;2023-06-26T11:56:19;98932.19;;;28.00;67.63
43153;BME280;28756;49.064;9.290;2023-06-26T11:59:02;98933.88;;;28.14;72.89
43153;BME280;28756;49.064;9.290;2023-06-26T12:04:05;98919.94;;;28.39;69.56
43153;BME280;28756;49.064;9.290;2023-06-26T12:06:34;98927.19;;;28.92;68.93
43153;BME280;28756;49.064;9.290;2023-06-26T12:09:03;98931.94;;;28.70;65.20
43153;BME280;28756;49.064;9.290;2023-06-26T12:11:32;98915.19;;;29.22;65.59
43153;BME280;28756;49.064;9.290;2023-06-26T12:13:59;98926.50;;;29.30;66.39
43153;BME280;28756;49.064;9.290;2023-06-26T12:16:28;98934.59;;;29.04;65.42
43153;BME280;28756;49.064;9.290;2023-06-26T12:19:02;98930.66;;;29.20;62.86
43153;BME280;28756;49.064;9.290;2023-06-26T12:24:04;98927.59;;;29.09;68.65
43153;BME280;28756;49.064;9.290;2023-06-26T12:26:29;98935.03;;;28.74;68.77
43153;BME280;28756;49.064;9.290;2023-06-26T12:29:13;98930.06;;;28.64;70.14
43153;BME280;28756;49.064;9.290;2023-06-26T12:31:50;98927.81;;;28.74;72.31
43153;BME280;28756;49.064;9.290;2023-06-26T12:34:25;98921.81;;;28.99;66.84
43153;BME280;28756;49.064;9.290;2023-06-26T12:36:51;98926.09;;;29.34;71.68
43153;BME280;28756;49.064;9.290;2023-06-26T12:39:20;98933.56;;;28.84;69.77
43153;BME280;28756;49.064;9.290;2023-06-26T12:41:53;98920.78;;;28.33;68.55
43153;BME280;28756;49.064;9.290;2023-06-26T12:44:27;98928.00;;;28.86;68.99
43153;BME280;28756;49.064;9.290;2023-06-26T12:46:59;98929.63;;;29.00;67.73
43153;BME280;28756;49.064;9.290;2023-06-26T12:49:41;98917.94;;;28.95;70.46
43153;BME280;28756;49.064;9.290;2023-06-26T12:52:13;98925.91;;;29.35;69.39
43153;BME280;28756;49.064;9.290;2023-06-26T12:54:42;98919.72;;;29.41;66.55
43153;BME280;28756;49.064;9.290;2023-06-26T12:57:09;98920.72;;;29.47;63.09
43153;BME280;28756;49.064;9.290;2023-06-26T12:59:37;98923.19;;;29.49;61.89
43153;BME280;28756;49.064;9.290;2023-06-26T13:02:03;98925.09;;;29.28;61.21
43153;BME280;28756;49.064;9.290;2023-06-26T13:04:29;98924.09;;;28.89;66.63
43153;BME280;28756;49.064;9.290;2023-06-26T13:06:55;98930.06;;;28.97;63.35
43153;BME280;28756;49.064;9.290;2023-06-26T13:09:23;98916.00;;;29.29;63.22
43153;BME280;28756;49.064;9.290;2023-06-26T13:11:51;98918.13;;;29.07;62.90
43153;BME280;28756;49.064;9.290;2023-06-26T13:14:17;98924.66;;;28.30;63.39
43153;BME280;28756;49.064;9.290;2023-06-26T13:16:43;98917.50;;;29.05;61.90
43153;BME280;28756;49.064;9.290;2023-06-26T13:19:09;98921.81;;;28.59;62.96